Page Muni Information

FAA: PGA - ICAO: KPGA

Page Muni (Airport) Location

State Arizona
County Coconino
City Page
Page Muni (Airport) is 1 mile east of Page, AZ.
Latitude 36-55-33.8500N
Longitude 111-26-54.0620W
Elevation 4,316ft

Page Muni METARs

METAR KPGA 032253Z AUTO 02003KT 10SM CLR 14/M06 A3012 RMK AO2 SLP180 T01391056
Altimeter 30.12"
Temperature 13.9°C (57.0°F)
Wind 20° at 3KT
Clouds Skies are clear.
Visibility 10.0mi
Time observed: 2021-12-03T22:53:00Z

Page Muni (Airport) Details

Status Operational
Activation September 1957
Ownership Public
Usage Public
Chart LAS VEGAS
ATC on-site No
Beacon schedule sunset-sunrise
Beacon color clear green

Page Muni (Airport) Contacts

Owner CITY OF PAGE
Owner address BOX 1180, PAGE, AZ 86040
Owner phone 928-645-8861
Manager N/A
Manager address N/A, N/A
Manager phone N/A

Page Muni Radio Frequencies

Page Muni (Airport) Radio Frequencies

UNICOM 122.8
Common traffic advisory frequency (CTAF) 122.8